Time;durP1;ratioP1;P1;durP2;ratioP2;P2;SDS_P1;SDS_P2;PMS_P1;PMS_P2;Temp;Humidity;BMP_temperature;BMP_pressure;BME280_temperature;BME280_humidity;BME280_pressure;Samples;Min_cycle;Max_cycle;Signal;HPM_P1;HPM_P2
2022/12/11 00:01:18;;;;;;;81.10;25.90;;;0.80;99.90;;;;;;5067000;28;20505;-59
2022/12/11 00:03:43;;;;;;;96.40;27.83;;;0.80;99.90;;;;;;5060112;28;20034;-59
2022/12/11 00:06:12;;;;;;;101.22;27.27;;;0.80;99.90;;;;;;5066543;28;20498;-58
2022/12/11 00:08:38;;;;;;;100.10;28.45;;;0.80;99.90;;;;;;5061001;28;20083;-53
2022/12/11 00:11:04;;;;;;;106.78;27.95;;;0.80;99.90;;;;;;5084030;28;20076;-58
2022/12/11 00:13:30;;;;;;;99.85;27.98;;;0.80;99.90;;;;;;5066426;28;20040;-57
2022/12/11 00:15:58;;;;;;;95.90;29.60;;;0.80;99.90;;;;;;5069341;28;20048;-58
2022/12/11 00:18:23;;;;;;;93.30;28.02;;;0.80;99.90;;;;;;5063592;28;20040;-58
2022/12/11 00:20:49;;;;;;;107.78;28.75;;;0.80;99.90;;;;;;5062480;28;20085;-56
2022/12/11 00:23:15;;;;;;;89.88;26.80;;;0.90;99.90;;;;;;5046032;28;20032;-57
2022/12/11 00:25:42;;;;;;;96.20;25.85;;;0.90;99.90;;;;;;5065938;28;20410;-56
2022/12/11 00:28:08;;;;;;;96.20;27.08;;;0.90;99.90;;;;;;5079837;28;20533;-57
2022/12/11 00:30:41;;;;;;;84.57;25.30;;;0.90;99.90;;;;;;5079136;28;20135;-55
2022/12/11 00:33:07;;;;;;;94.07;27.52;;;0.90;99.90;;;;;;5057102;28;20043;-58
2022/12/11 00:35:33;;;;;;;86.95;25.23;;;0.90;99.90;;;;;;5057925;28;20040;-57
2022/12/11 00:37:58;;;;;;;95.10;27.67;;;0.90;99.90;;;;;;5064798;28;20422;-57
2022/12/11 00:40:24;;;;;;;89.55;27.08;;;0.90;99.90;;;;;;5051796;28;20056;-56
2022/12/11 00:42:50;;;;;;;95.00;25.90;;;0.90;99.90;;;;;;5043201;28;20444;-58
2022/12/11 00:45:15;;;;;;;87.55;26.30;;;1.00;99.90;;;;;;5044891;28;20105;-57
2022/12/11 00:47:41;;;;;;;94.53;27.42;;;0.90;99.90;;;;;;5064527;28;20640;-57
2022/12/11 00:50:08;;;;;;;99.28;27.08;;;0.90;99.90;;;;;;5066896;28;20486;-58
2022/12/11 00:52:33;;;;;;;86.53;26.48;;;1.00;99.90;;;;;;5085774;28;20055;-58
2022/12/11 00:54:59;;;;;;;84.40;26.83;;;1.00;99.90;;;;;;5065521;28;20073;-55
2022/12/11 00:57:25;;;;;;;83.15;25.65;;;1.00;99.90;;;;;;5064970;28;20037;-57
2022/12/11 00:59:51;;;;;;;86.18;26.17;;;1.00;99.90;;;;;;5030117;28;20048;-57
2022/12/11 01:02:16;;;;;;;93.03;27.60;;;1.00;99.90;;;;;;5063195;28;20036;-56
2022/12/11 01:04:42;;;;;;;89.25;26.30;;;1.00;99.90;;;;;;5063742;28;20442;-58
2022/12/11 01:07:08;;;;;;;94.90;26.30;;;1.00;99.90;;;;;;5069259;28;20036;-57
2022/12/11 01:12:17;;;;;;;79.90;25.35;;;1.00;99.90;;;;;;5074714;28;20521;-55
2022/12/11 01:14:43;;;;;;;84.88;26.48;;;1.00;99.90;;;;;;5076116;28;20048;-55
2022/12/11 01:17:09;;;;;;;77.38;25.52;;;1.00;99.90;;;;;;5092429;28;20106;-58
2022/12/11 01:19:34;;;;;;;82.38;25.20;;;1.00;99.90;;;;;;5087342;28;20036;-58
2022/12/11 01:22:00;;;;;;;89.70;26.05;;;1.00;99.90;;;;;;5070352;28;20047;-54
2022/12/11 01:24:26;;;;;;;79.60;25.33;;;1.00;99.90;;;;;;5072935;28;20104;-58
2022/12/11 01:26:51;;;;;;;92.03;26.30;;;1.10;99.90;;;;;;5053935;28;20044;-59
2022/12/11 01:29:17;;;;;;;82.82;24.83;;;1.00;99.90;;;;;;5079833;28;20044;-53
2022/12/11 01:31:43;;;;;;;83.47;26.10;;;1.00;99.90;;;;;;5057650;28;20085;-54
2022/12/11 01:34:09;;;;;;;71.38;23.83;;;1.00;99.90;;;;;;5078779;28;20036;-57
2022/12/11 01:36:34;;;;;;;75.63;24.25;;;1.10;99.90;;;;;;5053835;28;20050;-59
2022/12/11 01:39:00;;;;;;;77.38;25.25;;;1.00;99.90;;;;;;5076005;28;20051;-57
2022/12/11 01:41:26;;;;;;;90.57;25.17;;;1.10;99.90;;;;;;5089645;28;20062;-56
2022/12/11 01:44:26;;;;;;;73.75;23.38;;;1.10;99.90;;;;;;5064177;28;20054;-56
2022/12/11 01:46:52;;;;;;;89.47;27.10;;;1.10;99.90;;;;;;5034995;28;20052;-57
2022/12/11 01:49:21;;;;;;;86.45;27.70;;;1.10;99.90;;;;;;5067665;28;20744;-56
2022/12/11 01:52:18;;;;;;;82.88;25.95;;;1.10;99.90;;;;;;5055356;28;20048;-59
2022/12/11 01:54:45;;;;;;;87.35;27.08;;;1.10;99.90;;;;;;5073803;28;20100;-58
2022/12/11 01:57:12;;;;;;;88.50;26.55;;;1.10;99.90;;;;;;5065504;28;20044;-57
2022/12/11 01:59:39;;;;;;;87.65;29.33;;;1.10;99.90;;;;;;5081077;28;20039;-58
2022/12/11 02:02:10;;;;;;;93.88;27.02;;;1.10;99.90;;;;;;5057995;28;21322;-57
2022/12/11 02:04:38;;;;;;;91.85;26.55;;;1.20;99.90;;;;;;5051094;28;20044;-56
2022/12/11 02:07:05;;;;;;;104.70;28.35;;;1.20;99.90;;;;;;5068293;28;20039;-59
2022/12/11 02:09:32;;;;;;;91.13;28.65;;;1.20;99.90;;;;;;5068705;28;20115;-55
2022/12/11 02:12:24;;;;;;;96.28;28.20;;;1.20;99.90;;;;;;5069389;28;20036;-54
2022/12/11 02:15:15;;;;;;;82.93;23.90;;;1.20;99.90;;;;;;5067446;28;20121;-56
2022/12/11 02:17:45;;;;;;;112.32;28.75;;;1.20;99.90;;;;;;5064561;28;20055;-56
2022/12/11 02:20:26;;;;;;;89.82;28.90;;;1.20;99.90;;;;;;5068559;28;20058;-58
2022/12/11 02:23:14;;;;;;;86.50;29.00;;;1.10;99.90;;;;;;5066827;28;20044;-57
2022/12/11 02:25:39;;;;;;;83.68;26.77;;;1.20;99.90;;;;;;5084871;28;20056;-58
2022/12/11 02:28:24;;;;;;;82.20;26.20;;;1.20;99.90;;;;;;5068523;28;20051;-56
2022/12/11 02:30:51;;;;;;;;;;;1.30;99.90;;;;;;5082438;28;20046;-55
2022/12/11 02:33:23;;;;;;;93.30;26.80;;;1.20;99.90;;;;;;5045675;28;19919;-56
2022/12/11 02:35:49;;;;;;;74.88;24.25;;;1.30;99.90;;;;;;5084414;28;20044;-59
2022/12/11 02:38:30;;;;;;;84.82;26.98;;;1.30;99.90;;;;;;5063529;28;20040;-58
2022/12/11 02:40:57;;;;;;;85.80;26.80;;;1.30;99.90;;;;;;5061333;28;20372;-58
2022/12/11 02:43:24;;;;;;;92.20;26.25;;;1.30;99.90;;;;;;5066427;28;20104;-60
2022/12/11 02:45:51;;;;;;;99.90;27.48;;;1.30;99.90;;;;;;5067860;28;20661;-56
2022/12/11 02:48:19;;;;;;;96.82;28.05;;;1.30;99.90;;;;;;5055994;28;20549;-59
2022/12/11 02:50:49;;;;;;;92.53;28.40;;;1.30;99.90;;;;;;5032068;28;20041;-58
2022/12/11 02:53:19;;;;;;;80.85;26.63;;;1.30;99.90;;;;;;5057765;28;20040;-58
2022/12/11 02:55:46;;;;;;;105.28;29.33;;;1.40;99.90;;;;;;5065687;28;20040;-55
2022/12/11 02:58:20;;;;;;;95.68;29.08;;;1.40;99.90;;;;;;5069543;28;20384;-58
2022/12/11 03:00:46;;;;;;;93.70;28.35;;;1.40;99.90;;;;;;5065205;28;20046;-57
2022/12/11 03:03:12;;;;;;;89.03;27.17;;;1.30;99.90;;;;;;5030375;28;20044;-54
2022/12/11 03:05:39;;;;;;;104.70;28.90;;;1.40;99.90;;;;;;5067403;28;20032;-59
2022/12/11 03:08:05;;;;;;;112.45;31.15;;;1.40;99.90;;;;;;5060662;28;20491;-54
2022/12/11 03:10:31;;;;;;;101.85;29.60;;;1.40;99.90;;;;;;5079373;28;20028;-57
2022/12/11 03:12:58;;;;;;;93.60;26.23;;;1.40;99.90;;;;;;5067714;28;20047;-59
2022/12/11 03:15:40;;;;;;;96.32;27.63;;;1.40;99.90;;;;;;5067424;28;20057;-56
2022/12/11 03:18:18;;;;;;;98.70;28.33;;;1.50;99.90;;;;;;5065620;28;20040;-57
2022/12/11 03:20:49;;;;;;;98.75;30.35;;;1.40;99.90;;;;;;5064190;28;20055;-58
2022/12/11 03:23:23;;;;;;;112.20;29.48;;;1.40;99.90;;;;;;5067071;28;20036;-58
2022/12/11 03:25:52;;;;;;;;;;;1.40;99.90;;;;;;5067852;28;20490;-57
2022/12/11 03:28:25;;;;;;;105.75;28.80;;;1.40;99.90;;;;;;5060925;28;20003;-55
2022/12/11 03:30:53;;;;;;;95.53;30.63;;;1.40;99.90;;;;;;5066320;28;20637;-56
2022/12/11 03:33:40;;;;;;;107.20;29.40;;;1.40;99.90;;;;;;5066914;28;20062;-59
2022/12/11 03:36:10;;;;;;;94.72;30.52;;;1.40;99.90;;;;;;5068299;28;20054;-57
2022/12/11 03:38:47;;;;;;;109.93;30.80;;;1.40;99.90;;;;;;5071756;28;20036;-56
2022/12/11 03:41:15;;;;;;;106.40;29.55;;;1.40;99.90;;;;;;5084132;28;20073;-56
2022/12/11 03:43:41;;;;;;;104.53;27.98;;;1.40;99.90;;;;;;5085213;28;20093;-56
2022/12/11 03:46:09;;;;;;;101.88;29.42;;;1.40;99.90;;;;;;5083693;28;20048;-57
2022/12/11 03:48:37;;;;;;;91.63;26.35;;;1.40;99.90;;;;;;5080144;28;20480;-59
2022/12/11 03:51:07;;;;;;;100.25;29.33;;;1.40;99.90;;;;;;5071236;28;20075;-56
2022/12/11 03:53:35;;;;;;;100.38;29.05;;;1.40;99.90;;;;;;5056361;28;20071;-54
2022/12/11 03:56:03;;;;;;;102.32;27.85;;;1.40;99.90;;;;;;5065070;28;20084;-56
2022/12/11 03:58:29;;;;;;;98.60;29.13;;;1.40;99.90;;;;;;5064555;28;20044;-58
2022/12/11 04:00:55;;;;;;;99.25;29.70;;;1.40;99.90;;;;;;5044776;28;20040;-56
2022/12/11 04:03:20;;;;;;;100.72;29.33;;;1.40;99.90;;;;;;5051960;28;20032;-60
2022/12/11 04:05:49;;;;;;;96.00;27.85;;;1.50;99.90;;;;;;5062925;28;20040;-60
2022/12/11 04:08:16;;;;;;;96.28;28.50;;;1.40;99.90;;;;;;5066593;28;20071;-58
2022/12/11 04:10:42;;;;;;;93.00;28.38;;;1.40;99.90;;;;;;5062205;28;20097;-56
2022/12/11 04:13:09;;;;;;;100.75;29.70;;;1.40;99.90;;;;;;5058566;28;20043;-57
2022/12/11 04:15:36;;;;;;;107.97;29.30;;;1.40;99.90;;;;;;5064150;28;20457;-56
2022/12/11 04:26:19;;;;;;;94.47;28.13;;;1.40;99.90;;;;;;5063516;28;20509;-54
2022/12/11 04:28:46;;;;;;;103.97;27.25;;;1.40;99.90;;;;;;5084124;28;20068;-59
2022/12/11 04:31:19;;;;;;;101.82;30.15;;;1.40;99.90;;;;;;5073856;28;20036;-59
2022/12/11 04:33:45;;;;;;;90.90;27.55;;;1.40;99.90;;;;;;5067221;28;20048;-58
2022/12/11 04:36:11;;;;;;;95.05;28.30;;;1.40;99.90;;;;;;5070720;28;20518;-57
2022/12/11 04:38:36;;;;;;;92.68;29.05;;;1.40;99.90;;;;;;5074585;28;20044;-59
2022/12/11 04:41:06;;;;;;;98.55;28.67;;;1.40;99.90;;;;;;5092206;28;20106;-56
2022/12/11 04:43:31;;;;;;;103.53;27.80;;;1.40;99.90;;;;;;5073926;28;20028;-57
2022/12/11 04:46:06;;;;;;;82.80;26.75;;;1.40;99.90;;;;;;5076282;28;20078;-59
2022/12/11 04:48:32;;;;;;;85.35;26.85;;;1.40;99.90;;;;;;5059542;28;20052;-58
2022/12/11 04:50:58;;;;;;;110.05;29.45;;;1.50;99.90;;;;;;5064938;28;20032;-57
2022/12/11 04:53:24;;;;;;;111.05;31.48;;;1.40;99.90;;;;;;5036644;28;20482;-59
2022/12/11 04:55:50;;;;;;;94.15;30.25;;;1.40;99.90;;;;;;5044948;28;20049;-55
2022/12/11 04:58:16;;;;;;;89.60;27.83;;;1.50;99.90;;;;;;5064286;28;20036;-58
2022/12/11 05:00:42;;;;;;;95.38;30.02;;;1.40;99.90;;;;;;5067073;28;20510;-59
2022/12/11 05:03:08;;;;;;;111.50;28.90;;;1.50;99.90;;;;;;5060066;28;20043;-56
2022/12/11 05:05:34;;;;;;;101.18;30.73;;;1.40;99.90;;;;;;5070931;28;20036;-55
2022/12/11 05:07:59;;;;;;;101.25;29.08;;;1.50;99.90;;;;;;5039581;28;20395;-53
2022/12/11 05:10:25;;;;;;;96.80;30.00;;;1.50;99.90;;;;;;5049233;28;20062;-56
2022/12/11 05:12:51;;;;;;;106.30;30.35;;;1.40;99.90;;;;;;5069016;28;20372;-58
2022/12/11 05:15:17;;;;;;;101.13;30.40;;;1.40;99.90;;;;;;5072570;28;20036;-56
2022/12/11 05:17:42;;;;;;;100.85;29.75;;;1.40;99.90;;;;;;5074068;28;20479;-53
2022/12/11 05:20:09;;;;;;;103.80;28.17;;;1.40;99.90;;;;;;5078878;28;20052;-56
2022/12/11 05:22:36;;;;;;;102.57;29.38;;;1.40;99.90;;;;;;5074010;28;20129;-55
2022/12/11 05:25:02;;;;;;;93.35;29.77;;;1.40;99.90;;;;;;5074400;28;20436;-57
2022/12/11 05:27:27;;;;;;;91.57;26.10;;;1.50;99.90;;;;;;5068252;28;20129;-53
2022/12/11 05:29:53;;;;;;;96.30;28.25;;;1.50;99.90;;;;;;5092205;28;20098;-58
2022/12/11 05:32:19;;;;;;;85.35;26.23;;;1.50;99.90;;;;;;5041988;28;20032;-56
2022/12/11 05:34:44;;;;;;;94.40;26.58;;;1.50;99.90;;;;;;5053465;28;20040;-56
2022/12/11 05:37:10;;;;;;;83.55;28.30;;;1.40;99.90;;;;;;5080046;28;20075;-55
2022/12/11 05:39:36;;;;;;;86.82;25.55;;;1.40;99.90;;;;;;5052897;28;20043;-58
2022/12/11 05:42:02;;;;;;;89.50;27.20;;;1.50;99.90;;;;;;5066294;28;20437;-56
2022/12/11 05:44:28;;;;;;;85.82;26.63;;;1.40;99.90;;;;;;5062882;28;20043;-56
2022/12/11 05:46:54;;;;;;;86.07;26.50;;;1.50;99.90;;;;;;5056603;28;20119;-57
2022/12/11 05:49:19;;;;;;;83.68;25.63;;;1.50;99.90;;;;;;5049122;28;20036;-58
2022/12/11 05:51:46;;;;;;;87.22;27.25;;;1.50;99.90;;;;;;5086570;28;20071;-56
2022/12/11 05:54:12;;;;;;;86.97;26.85;;;1.60;99.90;;;;;;5084984;28;20044;-58
2022/12/11 05:56:38;;;;;;;83.07;27.20;;;1.50;99.90;;;;;;5057171;28;20131;-56
2022/12/11 05:59:05;;;;;;;80.43;26.80;;;1.50;99.90;;;;;;5081654;28;20139;-57
2022/12/11 06:01:41;;;;;;;86.38;25.38;;;1.50;99.90;;;;;;5064764;28;20429;-55
2022/12/11 06:04:09;;;;;;;78.00;23.38;;;1.50;99.90;;;;;;5096187;22;20044;-59
2022/12/11 06:06:35;;;;;;;85.93;25.27;;;1.50;99.90;;;;;;5041330;28;21101;-56
2022/12/11 06:09:03;;;;;;;90.10;26.77;;;1.50;99.90;;;;;;5045363;28;20032;-57
2022/12/11 06:11:30;;;;;;;79.80;25.13;;;1.50;99.90;;;;;;5049835;28;20399;-58
2022/12/11 06:13:57;;;;;;;81.72;25.10;;;1.50;99.90;;;;;;5048913;28;20036;-58
2022/12/11 06:16:23;;;;;;;89.25;25.60;;;1.60;99.90;;;;;;5026045;28;20496;-59
2022/12/11 06:18:49;;;;;;;84.07;26.65;;;1.60;99.90;;;;;;5060994;28;20120;-58
2022/12/11 06:21:21;;;;;;;80.68;25.90;;;1.50;99.90;;;;;;5042329;28;20136;-55
2022/12/11 06:23:49;;;;;;;90.20;30.20;;;1.50;99.90;;;;;;5043329;28;20544;-56
2022/12/11 06:26:15;;;;;;;78.28;26.80;;;1.50;99.90;;;;;;5050682;28;20090;-56
2022/12/11 06:28:41;;;;;;;76.20;25.77;;;1.50;99.90;;;;;;5064068;28;20119;-56
2022/12/11 06:31:08;;;;;;;73.40;25.15;;;1.50;99.90;;;;;;5060782;28;20029;-59
2022/12/11 06:33:34;;;;;;;84.97;26.23;;;1.50;99.90;;;;;;5041973;28;20076;-57
2022/12/11 06:36:02;;;;;;;66.70;23.92;;;1.60;99.90;;;;;;5046957;28;20624;-57
2022/12/11 06:38:27;;;;;;;77.15;26.48;;;1.50;99.90;;;;;;5049597;28;20079;-58
2022/12/11 06:40:55;;;;;;;79.47;25.58;;;1.50;99.90;;;;;;5049775;28;20036;-57
2022/12/11 06:43:21;;;;;;;80.85;26.38;;;1.50;99.90;;;;;;5028991;28;20040;-55
2022/12/11 06:45:47;;;;;;;84.85;27.33;;;1.60;99.90;;;;;;5043636;28;20403;-58
2022/12/11 06:48:12;;;;;;;94.65;31.90;;;1.60;99.90;;;;;;5025360;28;20047;-56
2022/12/11 06:50:38;;;;;;;80.43;26.80;;;1.50;99.90;;;;;;5047601;28;20041;-57
2022/12/11 06:53:04;;;;;;;85.07;28.35;;;1.50;99.90;;;;;;5061564;28;20052;-56
2022/12/11 06:55:29;;;;;;;87.40;26.55;;;1.60;99.90;;;;;;5032444;28;20048;-58
2022/12/11 06:57:55;;;;;;;80.93;25.65;;;1.60;99.90;;;;;;5025590;28;20228;-56
2022/12/11 07:00:21;;;;;;;83.15;26.65;;;1.60;99.90;;;;;;5041259;28;20065;-55
2022/12/11 07:02:49;;;;;;;82.38;27.02;;;1.60;99.90;;;;;;5051887;28;20123;-55
2022/12/11 07:05:14;;;;;;;76.50;26.70;;;1.60;99.90;;;;;;5049113;28;20515;-57
2022/12/11 07:07:40;;;;;;;82.05;26.92;;;1.60;99.90;;;;;;5046416;28;20137;-56
2022/12/11 07:10:06;;;;;;;74.13;25.80;;;1.60;99.90;;;;;;5045711;28;20064;-57
2022/12/11 07:12:32;;;;;;;90.80;29.08;;;1.60;99.90;;;;;;5027199;28;20051;-57
2022/12/11 07:14:58;;;;;;;67.93;25.83;;;1.60;99.90;;;;;;5045337;28;20045;-55
2022/12/11 07:17:23;;;;;;;74.78;24.52;;;1.60;99.90;;;;;;5046030;28;20041;-54
2022/12/11 07:19:49;;;;;;;84.05;27.35;;;1.70;99.90;;;;;;5044568;28;20062;-57
2022/12/11 07:22:15;;;;;;;75.45;26.90;;;1.50;99.90;;;;;;5038613;28;20376;-56
2022/12/11 07:24:40;;;;;;;87.75;28.70;;;1.60;99.90;;;;;;5026963;28;20032;-54
2022/12/11 07:27:06;;;;;;;88.40;28.45;;;1.60;99.90;;;;;;5046549;28;20044;-56
2022/12/11 07:29:32;;;;;;;92.57;28.02;;;1.60;99.90;;;;;;5046198;28;20119;-59
2022/12/11 07:31:58;;;;;;;84.97;27.25;;;1.50;99.90;;;;;;5027980;28;20036;-56
2022/12/11 07:34:23;;;;;;;81.70;26.30;;;1.60;99.90;;;;;;5046899;28;20045;-56
2022/12/11 07:36:49;;;;;;;87.93;26.77;;;1.60;99.90;;;;;;5045911;28;20048;-55
2022/12/11 07:39:14;;;;;;;88.65;26.85;;;1.60;99.90;;;;;;5046527;28;20032;-57
2022/12/11 07:41:40;;;;;;;77.38;28.88;;;1.60;99.90;;;;;;5044491;28;20506;-56
2022/12/11 07:44:06;;;;;;;88.22;28.25;;;1.60;99.90;;;;;;5064595;28;20115;-58
2022/12/11 07:46:33;;;;;;;91.57;28.83;;;1.60;99.90;;;;;;5043247;28;20123;-57
2022/12/11 07:49:02;;;;;;;86.03;26.27;;;1.60;99.90;;;;;;5047275;28;20044;-58
2022/12/11 07:51:30;;;;;;;80.45;27.35;;;1.50;99.90;;;;;;5045731;28;20048;-59
2022/12/11 07:54:10;;;;;;;80.75;26.98;;;1.60;99.90;;;;;;5045389;28;20141;-59
2022/12/11 07:56:36;;;;;;;94.80;30.65;;;1.60;99.90;;;;;;5044530;28;20041;-57
2022/12/11 07:59:04;;;;;;;90.72;28.05;;;1.60;99.90;;;;;;5032291;28;20040;-59
2022/12/11 08:01:32;;;;;;;84.15;29.27;;;1.60;99.90;;;;;;5038168;28;20278;-58
2022/12/11 08:03:57;;;;;;;84.20;28.35;;;1.60;99.90;;;;;;5063997;28;20040;-60
2022/12/11 08:06:26;;;;;;;86.07;28.33;;;1.60;99.90;;;;;;5046756;28;20071;-56
2022/12/11 08:08:53;;;;;;;85.20;26.45;;;1.60;99.90;;;;;;5044677;28;20033;-58
2022/12/11 08:11:19;;;;;;;87.45;27.95;;;1.60;99.90;;;;;;5047564;28;20029;-59
2022/12/11 08:13:44;;;;;;;90.78;28.33;;;1.60;99.90;;;;;;5045830;28;20040;-58
2022/12/11 08:16:13;;;;;;;82.00;27.55;;;1.60;99.90;;;;;;5028022;28;20438;-58
2022/12/11 08:18:39;;;;;;;90.05;29.30;;;1.60;99.90;;;;;;5047336;28;20087;-56
2022/12/11 08:21:07;;;;;;;96.30;30.95;;;1.70;99.90;;;;;;5045964;28;20174;-55
2022/12/11 08:23:33;;;;;;;87.53;28.75;;;1.60;99.90;;;;;;5043938;28;20040;-57
2022/12/11 08:26:02;;;;;;;93.03;30.52;;;1.70;99.90;;;;;;5032644;28;20515;-58
2022/12/11 08:28:28;;;;;;;107.82;36.33;;;1.60;99.90;;;;;;5044484;28;20403;-58
2022/12/11 08:30:53;;;;;;;108.50;38.65;;;1.60;99.90;;;;;;5060340;28;20342;-57
2022/12/11 08:33:19;;;;;;;100.05;36.00;;;1.60;99.90;;;;;;5053698;28;20036;-58
2022/12/11 08:35:45;;;;;;;117.75;49.25;;;1.60;99.90;;;;;;5037988;28;20040;-59
2022/12/11 08:38:11;;;;;;;103.28;32.63;;;1.70;99.90;;;;;;5046513;28;20052;-59
2022/12/11 08:40:36;;;;;;;84.93;29.20;;;1.70;99.90;;;;;;5045458;28;20057;-61
2022/12/11 08:43:02;;;;;;;96.70;28.38;;;1.70;99.90;;;;;;5045585;28;20829;-60
2022/12/11 08:45:28;;;;;;;95.20;29.55;;;1.70;99.90;;;;;;5029163;28;20139;-58
2022/12/11 08:47:54;;;;;;;98.28;30.38;;;1.70;99.90;;;;;;5030945;28;20064;-59
2022/12/11 08:50:20;;;;;;;88.53;29.25;;;1.70;99.90;;;;;;5025940;28;20064;-58
2022/12/11 08:52:46;;;;;;;95.30;29.95;;;1.70;99.90;;;;;;5063188;28;20052;-57
2022/12/11 08:55:11;;;;;;;92.32;29.70;;;1.70;99.90;;;;;;5050650;28;20048;-58
2022/12/11 08:57:40;;;;;;;84.45;29.13;;;1.70;99.90;;;;;;5048088;28;20043;-58
2022/12/11 09:00:08;;;;;;;96.03;31.88;;;1.70;99.90;;;;;;5033233;28;20399;-59
2022/12/11 09:02:34;;;;;;;86.20;28.92;;;1.70;99.90;;;;;;5032391;28;20657;-60
2022/12/11 09:05:00;;;;;;;91.88;29.80;;;1.70;99.90;;;;;;5049545;28;20372;-59
2022/12/11 09:07:28;;;;;;;96.57;29.70;;;1.80;99.90;;;;;;5069342;28;20060;-60
2022/12/11 09:09:54;;;;;;;97.28;29.25;;;1.70;99.90;;;;;;5067316;28;20468;-59
2022/12/11 09:12:20;;;;;;;92.28;29.08;;;1.80;99.90;;;;;;5046982;28;20037;-60
2022/12/11 09:14:46;;;;;;;87.30;29.27;;;1.80;99.90;;;;;;5051545;28;20075;-58
2022/12/11 09:17:12;;;;;;;90.47;28.85;;;1.80;99.90;;;;;;5048484;28;20116;-60
2022/12/11 09:19:37;;;;;;;89.22;28.40;;;1.80;99.90;;;;;;5034797;28;21843;-59
2022/12/11 09:22:03;;;;;;;85.15;30.20;;;1.80;99.90;;;;;;5069079;28;20032;-61
2022/12/11 09:24:29;;;;;;;81.18;28.50;;;1.80;99.90;;;;;;5071532;28;20121;-59
2022/12/11 09:26:54;;;;;;;97.60;30.90;;;1.90;99.90;;;;;;5031527;28;20040;-60
2022/12/11 09:29:20;;;;;;;89.18;29.92;;;1.90;99.90;;;;;;5051792;28;20043;-58
2022/12/11 09:31:47;;;;;;;89.90;31.50;;;1.90;99.90;;;;;;5047527;28;20111;-60
2022/12/11 09:34:13;;;;;;;81.35;29.48;;;1.90;99.90;;;;;;5066476;28;20052;-58
2022/12/11 09:36:40;;;;;;;88.28;31.25;;;1.90;99.90;;;;;;5033365;28;20045;-58
2022/12/11 09:39:07;;;;;;;89.47;28.70;;;1.90;99.90;;;;;;5048406;28;20095;-56
2022/12/11 09:41:48;;;;;;;93.22;28.23;;;2.00;99.90;;;;;;5048958;28;20153;-57
2022/12/11 09:44:30;;;;;;;84.13;30.05;;;2.00;99.90;;;;;;5067903;28;20032;-56
2022/12/11 09:46:57;;;;;;;81.75;28.58;;;2.00;99.90;;;;;;5066298;28;20047;-58
2022/12/11 09:49:39;;;;;;;84.90;29.08;;;2.00;99.90;;;;;;5047629;28;20044;-59
2022/12/11 09:52:22;;;;;;;83.82;29.00;;;2.00;99.90;;;;;;5048811;28;20032;-60
2022/12/11 09:55:00;;;;;;;82.60;31.23;;;2.00;99.90;;;;;;5048839;28;20043;-59
2022/12/11 09:57:45;;;;;;;83.38;29.10;;;2.00;99.90;;;;;;5048555;28;20479;-59
2022/12/11 10:00:11;;;;;;;81.43;27.75;;;2.00;99.90;;;;;;5052824;28;20128;-57
2022/12/11 10:02:46;;;;;;;87.13;31.92;;;2.00;99.90;;;;;;5052097;28;20418;-58
2022/12/11 10:05:17;;;;;;;72.18;26.10;;;2.00;99.90;;;;;;5044799;28;20340;-59
2022/12/11 10:07:50;;;;;;;84.03;28.33;;;2.10;99.90;;;;;;5036400;28;20194;-59
2022/12/11 10:10:43;;;;;;;94.63;33.33;;;2.10;99.90;;;;;;5052041;28;20071;-59
2022/12/11 10:13:27;;;;;;;83.65;30.52;;;2.10;99.90;;;;;;5049201;28;20052;-59
2022/12/11 10:16:08;;;;;;;82.50;29.35;;;2.10;99.90;;;;;;5038241;28;20502;-55
2022/12/11 10:18:35;;;;;;;77.25;31.15;;;2.10;99.90;;;;;;5070763;28;20045;-57
2022/12/11 10:21:02;;;;;;;90.00;29.23;;;2.10;99.90;;;;;;5066463;28;20098;-59
2022/12/11 10:23:43;;;;;;;82.93;30.85;;;2.10;99.90;;;;;;5055730;28;20032;-58
2022/12/11 10:26:24;;;;;;;81.07;27.50;;;2.20;99.90;;;;;;5046985;28;20104;-55
2022/12/11 10:28:50;;;;;;;80.97;30.30;;;2.10;99.90;;;;;;5069214;28;20040;-59
2022/12/11 10:31:17;;;;;;;77.18;28.13;;;2.10;99.90;;;;;;5017501;28;20381;-58
2022/12/11 10:34:02;;;;;;;73.90;25.90;;;2.20;99.90;;;;;;5049674;28;20426;-59
2022/12/11 10:36:35;;;;;;;83.57;27.27;;;2.20;99.90;;;;;;5028999;28;20050;-58
2022/12/11 10:39:02;;;;;;;70.40;26.88;;;2.20;99.90;;;;;;5049428;28;20048;-60
2022/12/11 10:41:36;;;;;;;78.20;28.00;;;2.20;99.90;;;;;;5048588;28;20037;-58
2022/12/11 10:44:27;;;;;;;73.05;29.10;;;2.30;99.90;;;;;;5050703;28;20036;-55
2022/12/11 10:47:12;;;;;;;69.80;26.13;;;2.30;99.90;;;;;;5051223;28;20555;-56
2022/12/11 10:50:02;;;;;;;71.88;28.63;;;2.30;99.90;;;;;;5049856;28;20046;-57
2022/12/11 10:52:37;;;;;;;67.85;26.73;;;2.40;99.90;;;;;;5046868;28;20044;-60
2022/12/11 10:55:27;;;;;;;70.32;26.83;;;2.30;99.90;;;;;;5050845;28;20059;-59
2022/12/11 10:58:01;;;;;;;74.47;27.02;;;2.40;99.90;;;;;;5050424;28;20040;-56
2022/12/11 11:00:39;;;;;;;73.10;27.38;;;2.40;99.90;;;;;;5032874;28;20029;-55
2022/12/11 11:03:20;;;;;;;66.30;26.58;;;2.40;99.90;;;;;;5062797;28;20036;-58
2022/12/11 11:05:45;;;;;;;74.43;28.58;;;2.40;99.90;;;;;;5045883;28;20388;-58
2022/12/11 11:08:13;;;;;;;75.35;29.02;;;2.50;99.90;;;;;;5046917;28;20044;-58
2022/12/11 11:10:59;;;;;;;74.20;29.55;;;2.50;99.90;;;;;;5050689;28;20048;-58
2022/12/11 11:13:27;;;;;;;66.63;26.92;;;2.50;99.90;;;;;;5044520;28;20128;-61
2022/12/11 11:16:10;;;;;;;64.30;25.63;;;2.50;99.90;;;;;;5048975;28;20063;-60
2022/12/11 11:18:39;;;;;;;65.93;27.45;;;2.50;99.90;;;;;;5048183;28;20070;-58
2022/12/11 11:21:06;;;;;;;64.38;28.40;;;2.40;99.90;;;;;;5033359;28;20040;-60
2022/12/11 11:23:33;;;;;;;71.97;27.40;;;2.40;99.90;;;;;;5048114;28;20062;-59
2022/12/11 11:26:07;;;;;;;61.47;25.90;;;2.40;99.90;;;;;;5048423;28;20181;-60
2022/12/11 11:28:36;;;;;;;61.50;25.90;;;2.40;99.90;;;;;;5047279;28;20383;-59
2022/12/11 11:31:12;;;;;;;62.78;27.23;;;2.40;99.90;;;;;;5049572;28;20471;-59
2022/12/11 11:33:55;;;;;;;67.95;27.35;;;2.40;99.90;;;;;;5045119;28;20538;-58
2022/12/11 11:36:33;;;;;;;68.97;27.73;;;2.40;99.90;;;;;;5050119;28;20113;-57
2022/12/11 11:39:30;;;;;;;64.63;27.38;;;2.40;99.90;;;;;;5048830;28;20130;-56
2022/12/11 11:42:22;;;;;;;70.15;27.48;;;2.50;99.90;;;;;;5045104;28;20721;-57
2022/12/11 11:45:11;;;;;;;68.45;26.80;;;2.40;99.90;;;;;;5052706;28;20524;-55
2022/12/11 11:48:02;;;;;;;66.95;27.95;;;2.50;99.90;;;;;;5068578;28;20040;-59
2022/12/11 11:50:34;;;;;;;57.83;24.73;;;2.40;99.90;;;;;;5045547;28;20075;-58
2022/12/11 11:53:04;;;;;;;60.53;25.83;;;2.50;99.90;;;;;;5049597;28;20052;-61
2022/12/11 11:56:01;;;;;;;58.22;26.42;;;2.50;99.90;;;;;;5040640;28;20110;-61
2022/12/11 11:58:59;;;;;;;59.35;25.83;;;2.50;99.90;;;;;;5042848;28;20066;-60
2022/12/11 12:01:26;;;;;;;57.83;26.02;;;2.50;99.90;;;;;;5017979;28;20048;-58
2022/12/11 12:03:52;;;;;;;62.22;26.25;;;2.50;99.90;;;;;;5047711;28;20605;-60
2022/12/11 12:06:27;;;;;;;61.35;28.15;;;2.50;99.90;;;;;;5062664;28;20075;-59
2022/12/11 12:11:45;;;;;;;56.60;25.65;;;2.60;99.90;;;;;;5057347;28;20255;-60
2022/12/11 12:14:20;;;;;;;61.95;26.55;;;2.60;99.90;;;;;;5028963;28;20044;-61
2022/12/11 12:17:07;;;;;;;54.78;24.88;;;2.60;99.90;;;;;;5029980;28;20056;-61
2022/12/11 12:19:57;;;;;;;50.70;23.63;;;2.60;99.90;;;;;;5005057;28;20530;-61
2022/12/11 12:22:29;;;;;;;59.47;26.55;;;2.60;99.90;;;;;;5013283;28;20064;-60
2022/12/11 12:25:09;;;;;;;58.13;25.85;;;2.60;99.90;;;;;;5016709;28;20411;-61
2022/12/11 12:27:57;;;;;;;53.83;25.67;;;2.70;99.90;;;;;;5039894;28;20041;-61
2022/12/11 12:30:23;;;;;;;54.60;24.92;;;2.60;99.90;;;;;;5037440;28;20287;-60
2022/12/11 12:33:06;;;;;;;65.00;28.27;;;2.60;99.90;;;;;;5025424;28;20049;-61
2022/12/11 12:35:39;;;;;;;54.63;24.35;;;2.60;99.90;;;;;;5016815;28;20041;-62
2022/12/11 12:38:29;;;;;;;51.13;24.80;;;2.60;99.90;;;;;;5026715;28;20044;-61
2022/12/11 12:41:26;;;;;;;55.88;24.67;;;2.60;99.90;;;;;;5044227;28;20052;-62
2022/12/11 12:44:15;;;;;;;50.60;25.08;;;2.60;99.90;;;;;;5044105;28;20029;-61
2022/12/11 12:46:55;;;;;;;55.22;25.73;;;2.60;99.90;;;;;;5013245;28;20049;-62
2022/12/11 12:49:40;;;;;;;53.40;24.13;;;2.70;99.90;;;;;;5027454;28;20041;-60
2022/12/11 12:52:13;;;;;;;52.78;24.90;;;2.70;99.90;;;;;;5038002;28;20041;-60
2022/12/11 12:54:42;;;;;;;54.58;25.33;;;2.70;99.90;;;;;;5015820;28;20068;-61
2022/12/11 12:57:08;;;;;;;50.05;24.30;;;2.70;99.90;;;;;;5041194;28;20474;-61
2022/12/11 12:59:33;;;;;;;51.00;23.75;;;2.70;99.90;;;;;;5037403;28;20302;-61
2022/12/11 13:02:01;;;;;;;48.00;22.67;;;2.70;99.90;;;;;;5035221;28;20037;-61
2022/12/11 13:04:42;;;;;;;50.92;25.67;;;2.70;99.90;;;;;;5020736;28;20045;-61